sensor_id;sensor_type;location;lat;lon;timestamp;temperature;humidity
33067;DHT22;19428;49.024;8.366;2024-01-30T00:01:31;1.50;99.90
33067;DHT22;19428;49.024;8.366;2024-01-30T00:03:56;1.50;99.90
33067;DHT22;19428;49.024;8.366;2024-01-30T00:06:43;1.40;99.90
33067;DHT22;19428;49.024;8.366;2024-01-30T00:11:53;1.50;99.90
33067;DHT22;19428;49.024;8.366;2024-01-30T00:14:24;1.40;99.90
33067;DHT22;19428;49.024;8.366;2024-01-30T00:16:51;1.40;99.90
33067;DHT22;19428;49.024;8.366;2024-01-30T00:19:28;1.40;99.90
33067;DHT22;19428;49.024;8.366;2024-01-30T00:21:54;1.40;99.90
33067;DHT22;19428;49.024;8.366;2024-01-30T00:24:19;1.40;99.90
33067;DHT22;19428;49.024;8.366;2024-01-30T00:26:45;1.40;99.90
33067;DHT22;19428;49.024;8.366;2024-01-30T00:29:12;1.50;99.90
33067;DHT22;19428;49.024;8.366;2024-01-30T00:31:50;1.50;99.90
33067;DHT22;19428;49.024;8.366;2024-01-30T00:34:16;1.60;99.90
33067;DHT22;19428;49.024;8.366;2024-01-30T00:36:41;1.60;99.90
33067;DHT22;19428;49.024;8.366;2024-01-30T00:39:07;1.70;99.90
33067;DHT22;19428;49.024;8.366;2024-01-30T00:44:22;1.60;99.90
33067;DHT22;19428;49.024;8.366;2024-01-30T00:49:51;1.30;99.90
33067;DHT22;19428;49.024;8.366;2024-01-30T00:52:17;1.30;99.90
33067;DHT22;19428;49.024;8.366;2024-01-30T00:54:45;1.20;99.90
33067;DHT22;19428;49.024;8.366;2024-01-30T00:57:10;1.30;99.90
33067;DHT22;19428;49.024;8.366;2024-01-30T00:59:45;1.20;99.90
33067;DHT22;19428;49.024;8.366;2024-01-30T01:02:11;1.30;99.90
33067;DHT22;19428;49.024;8.366;2024-01-30T01:04:48;1.20;99.90
33067;DHT22;19428;49.024;8.366;2024-01-30T01:07:14;1.20;99.90
33067;DHT22;19428;49.024;8.366;2024-01-30T01:09:39;1.20;99.90
33067;DHT22;19428;49.024;8.366;2024-01-30T01:12:05;1.10;99.90
33067;DHT22;19428;49.024;8.366;2024-01-30T01:17:38;1.40;99.90
33067;DHT22;19428;49.024;8.366;2024-01-30T01:20:05;1.40;99.90
33067;DHT22;19428;49.024;8.366;2024-01-30T01:22:32;1.40;99.90
33067;DHT22;19428;49.024;8.366;2024-01-30T01:24:58;1.20;99.90
33067;DHT22;19428;49.024;8.366;2024-01-30T01:27:24;1.10;99.90
33067;DHT22;19428;49.024;8.366;2024-01-30T01:29:51;1.10;99.90
33067;DHT22;19428;49.024;8.366;2024-01-30T01:32:16;1.00;99.90
33067;DHT22;19428;49.024;8.366;2024-01-30T01:34:42;1.10;99.90
33067;DHT22;19428;49.024;8.366;2024-01-30T01:37:08;1.00;99.90
33067;DHT22;19428;49.024;8.366;2024-01-30T01:39:33;1.10;99.90
33067;DHT22;19428;49.024;8.366;2024-01-30T01:41:59;1.10;99.90
33067;DHT22;19428;49.024;8.366;2024-01-30T01:44:25;1.10;99.90
33067;DHT22;19428;49.024;8.366;2024-01-30T01:46:51;1.20;99.90
33067;DHT22;19428;49.024;8.366;2024-01-30T01:51:47;0.90;99.90
33067;DHT22;19428;49.024;8.366;2024-01-30T01:54:14;0.70;99.90
33067;DHT22;19428;49.024;8.366;2024-01-30T01:56:42;0.70;99.90
33067;DHT22;19428;49.024;8.366;2024-01-30T01:59:08;0.60;99.90
33067;DHT22;19428;49.024;8.366;2024-01-30T02:01:38;0.90;99.90
33067;DHT22;19428;49.024;8.366;2024-01-30T02:04:17;0.90;99.90
33067;DHT22;19428;49.024;8.366;2024-01-30T02:06:43;1.00;99.90
33067;DHT22;19428;49.024;8.366;2024-01-30T02:09:09;1.00;99.90
33067;DHT22;19428;49.024;8.366;2024-01-30T02:11:36;0.90;99.90
33067;DHT22;19428;49.024;8.366;2024-01-30T02:14:05;0.70;99.90
33067;DHT22;19428;49.024;8.366;2024-01-30T02:16:33;0.60;99.90
33067;DHT22;19428;49.024;8.366;2024-01-30T02:19:00;0.70;99.90
33067;DHT22;19428;49.024;8.366;2024-01-30T02:23:52;0.70;99.90
33067;DHT22;19428;49.024;8.366;2024-01-30T02:26:24;0.80;99.90
33067;DHT22;19428;49.024;8.366;2024-01-30T02:28:50;0.90;99.90
33067;DHT22;19428;49.024;8.366;2024-01-30T02:31:19;1.00;99.90
33067;DHT22;19428;49.024;8.366;2024-01-30T02:33:47;1.10;99.90
33067;DHT22;19428;49.024;8.366;2024-01-30T02:36:15;1.10;99.90
33067;DHT22;19428;49.024;8.366;2024-01-30T02:38:43;1.00;99.90
33067;DHT22;19428;49.024;8.366;2024-01-30T02:41:09;0.90;99.90
33067;DHT22;19428;49.024;8.366;2024-01-30T02:46:34;0.70;99.90
33067;DHT22;19428;49.024;8.366;2024-01-30T02:49:00;0.50;99.90
33067;DHT22;19428;49.024;8.366;2024-01-30T02:51:25;0.40;99.90
33067;DHT22;19428;49.024;8.366;2024-01-30T02:54:43;0.20;99.90
33067;DHT22;19428;49.024;8.366;2024-01-30T02:57:02;0.30;99.90
33067;DHT22;19428;49.024;8.366;2024-01-30T02:59:27;0.30;99.90
33067;DHT22;19428;49.024;8.366;2024-01-30T03:01:53;0.40;99.90
33067;DHT22;19428;49.024;8.366;2024-01-30T03:04:18;0.40;99.90
33067;DHT22;19428;49.024;8.366;2024-01-30T03:06:47;0.40;99.90
33067;DHT22;19428;49.024;8.366;2024-01-30T03:09:13;0.40;99.90
33067;DHT22;19428;49.024;8.366;2024-01-30T03:11:39;0.40;99.90
33067;DHT22;19428;49.024;8.366;2024-01-30T03:14:04;0.60;99.90
33067;DHT22;19428;49.024;8.366;2024-01-30T03:16:30;0.60;99.90
33067;DHT22;19428;49.024;8.366;2024-01-30T03:18:55;0.50;99.90
33067;DHT22;19428;49.024;8.366;2024-01-30T03:21:21;0.30;99.90
33067;DHT22;19428;49.024;8.366;2024-01-30T03:23:47;0.40;99.90
33067;DHT22;19428;49.024;8.366;2024-01-30T03:26:12;0.50;99.90
33067;DHT22;19428;49.024;8.366;2024-01-30T03:28:40;0.60;99.90
33067;DHT22;19428;49.024;8.366;2024-01-30T03:31:05;0.70;99.90
33067;DHT22;19428;49.024;8.366;2024-01-30T03:33:31;0.80;99.90
33067;DHT22;19428;49.024;8.366;2024-01-30T03:35:57;0.90;99.90
33067;DHT22;19428;49.024;8.366;2024-01-30T03:38:23;1.00;99.90
33067;DHT22;19428;49.024;8.366;2024-01-30T03:40:48;1.10;99.90
33067;DHT22;19428;49.024;8.366;2024-01-30T03:43:14;1.10;99.90
33067;DHT22;19428;49.024;8.366;2024-01-30T03:45:39;1.20;99.90
33067;DHT22;19428;49.024;8.366;2024-01-30T03:50:58;0.50;99.90
33067;DHT22;19428;49.024;8.366;2024-01-30T03:53:23;0.40;99.90
33067;DHT22;19428;49.024;8.366;2024-01-30T03:55:49;0.40;99.90
33067;DHT22;19428;49.024;8.366;2024-01-30T03:58:15;0.30;99.90
33067;DHT22;19428;49.024;8.366;2024-01-30T04:00:40;0.30;99.90
33067;DHT22;19428;49.024;8.366;2024-01-30T04:03:06;0.40;99.90
33067;DHT22;19428;49.024;8.366;2024-01-30T04:05:32;0.20;99.90
33067;DHT22;19428;49.024;8.366;2024-01-30T04:07:58;0.30;99.90
33067;DHT22;19428;49.024;8.366;2024-01-30T04:10:24;0.50;99.90
33067;DHT22;19428;49.024;8.366;2024-01-30T04:12:50;0.50;99.90
33067;DHT22;19428;49.024;8.366;2024-01-30T04:15:17;0.60;99.90
33067;DHT22;19428;49.024;8.366;2024-01-30T04:18:06;0.80;99.90
33067;DHT22;19428;49.024;8.366;2024-01-30T04:20:31;0.80;99.90
33067;DHT22;19428;49.024;8.366;2024-01-30T04:22:57;0.90;99.90
33067;DHT22;19428;49.024;8.366;2024-01-30T04:25:23;0.60;99.90
33067;DHT22;19428;49.024;8.366;2024-01-30T04:27:48;0.60;99.90
33067;DHT22;19428;49.024;8.366;2024-01-30T04:30:17;0.60;99.90
33067;DHT22;19428;49.024;8.366;2024-01-30T04:32:43;0.30;99.90
33067;DHT22;19428;49.024;8.366;2024-01-30T04:35:09;0.30;99.90
33067;DHT22;19428;49.024;8.366;2024-01-30T04:37:34;0.50;99.90
33067;DHT22;19428;49.024;8.366;2024-01-30T04:40:00;0.70;99.90
33067;DHT22;19428;49.024;8.366;2024-01-30T04:42:25;1.00;99.90
33067;DHT22;19428;49.024;8.366;2024-01-30T04:44:51;1.20;99.90
33067;DHT22;19428;49.024;8.366;2024-01-30T04:47:16;0.70;99.90
33067;DHT22;19428;49.024;8.366;2024-01-30T04:49:42;0.40;99.90
33067;DHT22;19428;49.024;8.366;2024-01-30T04:52:08;0.50;99.90
33067;DHT22;19428;49.024;8.366;2024-01-30T04:54:35;0.50;99.90
33067;DHT22;19428;49.024;8.366;2024-01-30T04:57:04;0.50;99.90
33067;DHT22;19428;49.024;8.366;2024-01-30T04:59:31;0.30;99.90
33067;DHT22;19428;49.024;8.366;2024-01-30T05:01:56;0.40;99.90
33067;DHT22;19428;49.024;8.366;2024-01-30T05:04:22;0.30;99.90
33067;DHT22;19428;49.024;8.366;2024-01-30T05:06:47;0.40;99.90
33067;DHT22;19428;49.024;8.366;2024-01-30T05:12:35;0.40;99.90
33067;DHT22;19428;49.024;8.366;2024-01-30T05:15:00;0.40;99.90
33067;DHT22;19428;49.024;8.366;2024-01-30T05:17:26;0.40;99.90
33067;DHT22;19428;49.024;8.366;2024-01-30T05:19:51;0.20;99.90
33067;DHT22;19428;49.024;8.366;2024-01-30T05:22:23;0.20;99.90
33067;DHT22;19428;49.024;8.366;2024-01-30T05:24:49;0.20;99.90
33067;DHT22;19428;49.024;8.366;2024-01-30T05:30:11;0.00;99.90
33067;DHT22;19428;49.024;8.366;2024-01-30T05:32:37;0.10;99.90
33067;DHT22;19428;49.024;8.366;2024-01-30T05:35:03;0.10;99.90
33067;DHT22;19428;49.024;8.366;2024-01-30T05:37:29;0.30;99.90
33067;DHT22;19428;49.024;8.366;2024-01-30T05:39:55;0.20;99.90
33067;DHT22;19428;49.024;8.366;2024-01-30T05:42:23;0.10;99.90
33067;DHT22;19428;49.024;8.366;2024-01-30T05:44:51;0.10;99.90
33067;DHT22;19428;49.024;8.366;2024-01-30T05:47:17;0.20;99.90
33067;DHT22;19428;49.024;8.366;2024-01-30T05:49:42;0.20;99.90
33067;DHT22;19428;49.024;8.366;2024-01-30T05:52:08;0.10;99.90
33067;DHT22;19428;49.024;8.366;2024-01-30T05:54:33;0.30;99.90
33067;DHT22;19428;49.024;8.366;2024-01-30T05:56:59;0.30;99.90
33067;DHT22;19428;49.024;8.366;2024-01-30T05:59:25;0.10;99.90
33067;DHT22;19428;49.024;8.366;2024-01-30T06:01:50;0.20;99.90
33067;DHT22;19428;49.024;8.366;2024-01-30T06:04:16;0.20;99.90
33067;DHT22;19428;49.024;8.366;2024-01-30T06:09:32;0.20;99.90
33067;DHT22;19428;49.024;8.366;2024-01-30T06:11:58;-0.10;99.90
33067;DHT22;19428;49.024;8.366;2024-01-30T06:14:24;-0.10;99.90
33067;DHT22;19428;49.024;8.366;2024-01-30T06:16:49;0.20;99.90
33067;DHT22;19428;49.024;8.366;2024-01-30T06:19:15;0.20;99.90
33067;DHT22;19428;49.024;8.366;2024-01-30T06:21:41;-0.10;99.90
33067;DHT22;19428;49.024;8.366;2024-01-30T06:24:06;-0.20;99.90
33067;DHT22;19428;49.024;8.366;2024-01-30T06:26:32;-0.20;99.90
33067;DHT22;19428;49.024;8.366;2024-01-30T06:28:58;-0.30;99.90
33067;DHT22;19428;49.024;8.366;2024-01-30T06:31:23;-0.10;99.90
33067;DHT22;19428;49.024;8.366;2024-01-30T06:33:50;-0.10;99.90
33067;DHT22;19428;49.024;8.366;2024-01-30T06:36:19;-0.10;99.90
33067;DHT22;19428;49.024;8.366;2024-01-30T06:38:44;-0.10;99.90
33067;DHT22;19428;49.024;8.366;2024-01-30T06:41:16;-0.30;99.90
33067;DHT22;19428;49.024;8.366;2024-01-30T06:43:42;-0.40;99.90
33067;DHT22;19428;49.024;8.366;2024-01-30T06:46:07;-0.20;99.90
33067;DHT22;19428;49.024;8.366;2024-01-30T06:48:33;-0.10;99.90
33067;DHT22;19428;49.024;8.366;2024-01-30T06:50:58;0.10;99.90
33067;DHT22;19428;49.024;8.366;2024-01-30T06:53:24;0.20;99.90
33067;DHT22;19428;49.024;8.366;2024-01-30T06:55:52;0.00;99.90
33067;DHT22;19428;49.024;8.366;2024-01-30T06:58:17;-0.20;99.90
33067;DHT22;19428;49.024;8.366;2024-01-30T07:00:43;-0.30;99.90
33067;DHT22;19428;49.024;8.366;2024-01-30T07:03:09;-0.40;99.90
33067;DHT22;19428;49.024;8.366;2024-01-30T07:05:34;-0.30;99.90
33067;DHT22;19428;49.024;8.366;2024-01-30T07:08:00;-0.20;99.90
33067;DHT22;19428;49.024;8.366;2024-01-30T07:10:25;0.10;99.90
33067;DHT22;19428;49.024;8.366;2024-01-30T07:12:51;0.40;99.90
33067;DHT22;19428;49.024;8.366;2024-01-30T07:15:17;0.20;99.90
33067;DHT22;19428;49.024;8.366;2024-01-30T07:17:48;0.30;99.90
33067;DHT22;19428;49.024;8.366;2024-01-30T07:20:13;0.20;99.90
33067;DHT22;19428;49.024;8.366;2024-01-30T07:22:40;0.10;99.90
33067;DHT22;19428;49.024;8.366;2024-01-30T07:25:06;0.10;99.90
33067;DHT22;19428;49.024;8.366;2024-01-30T07:27:32;0.30;99.90
33067;DHT22;19428;49.024;8.366;2024-01-30T07:29:57;0.30;99.90
33067;DHT22;19428;49.024;8.366;2024-01-30T07:32:23;0.40;99.90
33067;DHT22;19428;49.024;8.366;2024-01-30T07:34:54;0.30;99.90
33067;DHT22;19428;49.024;8.366;2024-01-30T07:37:22;0.40;99.90
33067;DHT22;19428;49.024;8.366;2024-01-30T07:39:48;0.40;99.90
33067;DHT22;19428;49.024;8.366;2024-01-30T07:42:48;0.40;99.90
33067;DHT22;19428;49.024;8.366;2024-01-30T07:45:31;0.60;99.90
33067;DHT22;19428;49.024;8.366;2024-01-30T07:48:16;0.80;99.90
33067;DHT22;19428;49.024;8.366;2024-01-30T07:51:08;0.80;99.90
33067;DHT22;19428;49.024;8.366;2024-01-30T07:54:18;0.90;99.90
33067;DHT22;19428;49.024;8.366;2024-01-30T08:02:07;1.10;99.90
33067;DHT22;19428;49.024;8.366;2024-01-30T08:04:43;1.20;99.90
33067;DHT22;19428;49.024;8.366;2024-01-30T08:07:21;1.20;99.90
33067;DHT22;19428;49.024;8.366;2024-01-30T08:09:47;1.10;99.90
33067;DHT22;19428;49.024;8.366;2024-01-30T08:12:36;1.30;99.90
33067;DHT22;19428;49.024;8.366;2024-01-30T08:15:25;1.40;99.90
33067;DHT22;19428;49.024;8.366;2024-01-30T08:17:53;1.50;99.90
33067;DHT22;19428;49.024;8.366;2024-01-30T08:20:23;1.50;99.90
33067;DHT22;19428;49.024;8.366;2024-01-30T08:22:49;1.50;99.90
33067;DHT22;19428;49.024;8.366;2024-01-30T08:25:15;1.70;99.90
33067;DHT22;19428;49.024;8.366;2024-01-30T08:27:40;1.80;99.90
33067;DHT22;19428;49.024;8.366;2024-01-30T08:30:09;1.90;99.90
33067;DHT22;19428;49.024;8.366;2024-01-30T08:35:15;2.60;99.90
33067;DHT22;19428;49.024;8.366;2024-01-30T08:37:46;2.70;99.90
33067;DHT22;19428;49.024;8.366;2024-01-30T08:40:17;3.30;99.90
33067;DHT22;19428;49.024;8.366;2024-01-30T08:42:46;3.60;99.90
33067;DHT22;19428;49.024;8.366;2024-01-30T08:45:11;3.50;99.90
33067;DHT22;19428;49.024;8.366;2024-01-30T08:47:37;3.70;99.90
33067;DHT22;19428;49.024;8.366;2024-01-30T08:50:03;4.00;99.90
33067;DHT22;19428;49.024;8.366;2024-01-30T08:52:29;4.00;99.90
33067;DHT22;19428;49.024;8.366;2024-01-30T08:54:54;4.10;99.90
33067;DHT22;19428;49.024;8.366;2024-01-30T08:57:20;4.30;99.90
33067;DHT22;19428;49.024;8.366;2024-01-30T08:59:46;4.40;99.90
33067;DHT22;19428;49.024;8.366;2024-01-30T09:05:43;4.30;99.90
33067;DHT22;19428;49.024;8.366;2024-01-30T09:11:12;4.40;99.90
33067;DHT22;19428;49.024;8.366;2024-01-30T09:13:41;4.60;99.90
33067;DHT22;19428;49.024;8.366;2024-01-30T09:16:07;4.70;99.90
33067;DHT22;19428;49.024;8.366;2024-01-30T09:18:33;4.70;99.90
33067;DHT22;19428;49.024;8.366;2024-01-30T09:20:59;4.70;99.90
33067;DHT22;19428;49.024;8.366;2024-01-30T09:23:26;4.80;99.90
33067;DHT22;19428;49.024;8.366;2024-01-30T09:25:52;4.90;99.90
33067;DHT22;19428;49.024;8.366;2024-01-30T09:28:18;5.00;99.90
33067;DHT22;19428;49.024;8.366;2024-01-30T09:30:43;5.10;99.90
33067;DHT22;19428;49.024;8.366;2024-01-30T09:33:09;5.10;99.90
33067;DHT22;19428;49.024;8.366;2024-01-30T09:35:36;5.20;99.90
33067;DHT22;19428;49.024;8.366;2024-01-30T09:38:02;5.20;99.90
33067;DHT22;19428;49.024;8.366;2024-01-30T09:40:28;5.20;99.90
33067;DHT22;19428;49.024;8.366;2024-01-30T09:42:54;5.30;99.90
33067;DHT22;19428;49.024;8.366;2024-01-30T09:45:24;5.40;99.90
33067;DHT22;19428;49.024;8.366;2024-01-30T09:47:50;5.50;99.90
33067;DHT22;19428;49.024;8.366;2024-01-30T09:50:16;5.50;99.90
33067;DHT22;19428;49.024;8.366;2024-01-30T09:52:43;5.50;99.90
33067;DHT22;19428;49.024;8.366;2024-01-30T09:55:09;5.60;99.90
33067;DHT22;19428;49.024;8.366;2024-01-30T09:57:35;5.70;99.90
33067;DHT22;19428;49.024;8.366;2024-01-30T10:00:02;5.70;99.90
33067;DHT22;19428;49.024;8.366;2024-01-30T10:02:28;5.90;99.90
33067;DHT22;19428;49.024;8.366;2024-01-30T10:04:53;5.90;99.90
33067;DHT22;19428;49.024;8.366;2024-01-30T10:07:19;6.10;99.90
33067;DHT22;19428;49.024;8.366;2024-01-30T10:09:46;6.20;99.90
33067;DHT22;19428;49.024;8.366;2024-01-30T10:12:12;6.40;99.90
33067;DHT22;19428;49.024;8.366;2024-01-30T10:14:41;6.40;99.90
33067;DHT22;19428;49.024;8.366;2024-01-30T10:17:11;6.30;99.90
33067;DHT22;19428;49.024;8.366;2024-01-30T10:19:41;6.40;99.90
33067;DHT22;19428;49.024;8.366;2024-01-30T10:22:07;6.40;99.90
33067;DHT22;19428;49.024;8.366;2024-01-30T10:24:36;6.50;99.90
33067;DHT22;19428;49.024;8.366;2024-01-30T10:27:02;6.60;99.90
33067;DHT22;19428;49.024;8.366;2024-01-30T10:29:28;6.60;99.90
33067;DHT22;19428;49.024;8.366;2024-01-30T10:32:04;6.60;99.90
33067;DHT22;19428;49.024;8.366;2024-01-30T10:34:30;6.70;99.90
33067;DHT22;19428;49.024;8.366;2024-01-30T10:37:05;6.70;99.90
33067;DHT22;19428;49.024;8.366;2024-01-30T10:39:36;6.70;99.90
33067;DHT22;19428;49.024;8.366;2024-01-30T10:42:04;6.80;99.90
33067;DHT22;19428;49.024;8.366;2024-01-30T10:44:56;6.80;99.90
33067;DHT22;19428;49.024;8.366;2024-01-30T10:47:30;7.00;99.90
33067;DHT22;19428;49.024;8.366;2024-01-30T10:49:56;7.10;99.90
33067;DHT22;19428;49.024;8.366;2024-01-30T10:52:23;7.00;99.90
33067;DHT22;19428;49.024;8.366;2024-01-30T10:54:54;7.10;99.90
33067;DHT22;19428;49.024;8.366;2024-01-30T10:57:23;7.10;99.90
33067;DHT22;19428;49.024;8.366;2024-01-30T10:59:49;7.20;99.90
33067;DHT22;19428;49.024;8.366;2024-01-30T11:02:17;7.30;99.90
33067;DHT22;19428;49.024;8.366;2024-01-30T11:04:43;7.30;99.90
33067;DHT22;19428;49.024;8.366;2024-01-30T11:07:15;7.30;99.90
33067;DHT22;19428;49.024;8.366;2024-01-30T11:09:48;7.50;99.90
33067;DHT22;19428;49.024;8.366;2024-01-30T11:12:14;7.40;99.90
33067;DHT22;19428;49.024;8.366;2024-01-30T11:14:40;7.50;99.90
33067;DHT22;19428;49.024;8.366;2024-01-30T11:17:06;7.60;99.90
33067;DHT22;19428;49.024;8.366;2024-01-30T11:19:32;7.80;99.90
33067;DHT22;19428;49.024;8.366;2024-01-30T11:21:59;7.80;99.90
33067;DHT22;19428;49.024;8.366;2024-01-30T11:24:26;8.00;99.90
33067;DHT22;19428;49.024;8.366;2024-01-30T11:26:58;8.20;99.90
33067;DHT22;19428;49.024;8.366;2024-01-30T11:29:25;8.40;99.90
33067;DHT22;19428;49.024;8.366;2024-01-30T11:31:56;8.70;99.90
33067;DHT22;19428;49.024;8.366;2024-01-30T11:34:22;8.80;99.90
33067;DHT22;19428;49.024;8.366;2024-01-30T11:36:52;8.50;99.90
33067;DHT22;19428;49.024;8.366;2024-01-30T11:39:24;8.50;99.90
33067;DHT22;19428;49.024;8.366;2024-01-30T11:41:51;8.60;99.90
33067;DHT22;19428;49.024;8.366;2024-01-30T11:44:20;8.90;99.90
33067;DHT22;19428;49.024;8.366;2024-01-30T11:46:50;8.90;99.90
33067;DHT22;19428;49.024;8.366;2024-01-30T11:49:16;8.80;99.90
33067;DHT22;19428;49.024;8.366;2024-01-30T11:51:48;9.10;99.90
33067;DHT22;19428;49.024;8.366;2024-01-30T11:54:17;9.00;99.90
33067;DHT22;19428;49.024;8.366;2024-01-30T11:56:43;9.00;99.90
33067;DHT22;19428;49.024;8.366;2024-01-30T11:59:09;9.10;99.90
33067;DHT22;19428;49.024;8.366;2024-01-30T12:01:34;9.00;99.90
33067;DHT22;19428;49.024;8.366;2024-01-30T12:04:00;9.30;99.90
33067;DHT22;19428;49.024;8.366;2024-01-30T12:06:26;9.30;99.90
33067;DHT22;19428;49.024;8.366;2024-01-30T12:08:59;9.40;99.90
33067;DHT22;19428;49.024;8.366;2024-01-30T12:11:26;9.50;99.90
33067;DHT22;19428;49.024;8.366;2024-01-30T12:13:52;9.60;99.90
33067;DHT22;19428;49.024;8.366;2024-01-30T12:16:19;9.50;99.90
33067;DHT22;19428;49.024;8.366;2024-01-30T12:18:44;9.50;99.90
33067;DHT22;19428;49.024;8.366;2024-01-30T12:21:10;9.70;99.90
33067;DHT22;19428;49.024;8.366;2024-01-30T12:23:36;9.90;99.90
33067;DHT22;19428;49.024;8.366;2024-01-30T12:26:02;9.90;99.90
33067;DHT22;19428;49.024;8.366;2024-01-30T12:28:29;9.80;99.90
33067;DHT22;19428;49.024;8.366;2024-01-30T12:31:01;9.70;99.90
33067;DHT22;19428;49.024;8.366;2024-01-30T12:33:28;9.70;99.90
33067;DHT22;19428;49.024;8.366;2024-01-30T12:35:55;9.80;99.90
33067;DHT22;19428;49.024;8.366;2024-01-30T12:38:21;9.90;99.90
33067;DHT22;19428;49.024;8.366;2024-01-30T12:40:46;9.90;99.90
33067;DHT22;19428;49.024;8.366;2024-01-30T12:43:13;9.80;99.90
33067;DHT22;19428;49.024;8.366;2024-01-30T12:45:39;9.90;99.90
33067;DHT22;19428;49.024;8.366;2024-01-30T12:48:05;9.70;99.90
33067;DHT22;19428;49.024;8.366;2024-01-30T12:50:30;9.70;99.90
33067;DHT22;19428;49.024;8.366;2024-01-30T12:52:56;9.80;99.90
33067;DHT22;19428;49.024;8.366;2024-01-30T12:55:22;9.90;99.90
33067;DHT22;19428;49.024;8.366;2024-01-30T12:57:47;10.00;97.70
33067;DHT22;19428;49.024;8.366;2024-01-30T13:00:13;9.90;96.50
33067;DHT22;19428;49.024;8.366;2024-01-30T13:02:39;10.20;97.10
33067;DHT22;19428;49.024;8.366;2024-01-30T13:05:04;10.30;93.80
33067;DHT22;19428;49.024;8.366;2024-01-30T13:07:30;10.30;95.00
33067;DHT22;19428;49.024;8.366;2024-01-30T13:09:56;10.40;89.90
33067;DHT22;19428;49.024;8.366;2024-01-30T13:12:29;10.50;90.90
33067;DHT22;19428;49.024;8.366;2024-01-30T13:14:55;10.40;88.60
33067;DHT22;19428;49.024;8.366;2024-01-30T13:17:21;10.50;88.60
33067;DHT22;19428;49.024;8.366;2024-01-30T13:19:46;10.60;86.50
33067;DHT22;19428;49.024;8.366;2024-01-30T13:22:14;10.50;87.30
33067;DHT22;19428;49.024;8.366;2024-01-30T13:24:40;10.40;88.00
33067;DHT22;19428;49.024;8.366;2024-01-30T13:27:07;10.50;90.40
33067;DHT22;19428;49.024;8.366;2024-01-30T13:29:32;10.50;91.10
33067;DHT22;19428;49.024;8.366;2024-01-30T13:31:58;10.50;91.10
33067;DHT22;19428;49.024;8.366;2024-01-30T13:34:25;10.50;92.50
33067;DHT22;19428;49.024;8.366;2024-01-30T13:36:50;10.50;90.70
33067;DHT22;19428;49.024;8.366;2024-01-30T13:39:16;10.40;91.50
33067;DHT22;19428;49.024;8.366;2024-01-30T13:41:42;10.50;91.30
33067;DHT22;19428;49.024;8.366;2024-01-30T13:44:08;10.50;92.10
33067;DHT22;19428;49.024;8.366;2024-01-30T13:46:35;10.60;90.80
33067;DHT22;19428;49.024;8.366;2024-01-30T13:49:01;10.70;90.20
33067;DHT22;19428;49.024;8.366;2024-01-30T13:51:26;10.80;89.20
33067;DHT22;19428;49.024;8.366;2024-01-30T13:53:52;10.90;85.00
33067;DHT22;19428;49.024;8.366;2024-01-30T13:56:19;10.80;80.10
33067;DHT22;19428;49.024;8.366;2024-01-30T13:58:44;10.90;80.80
33067;DHT22;19428;49.024;8.366;2024-01-30T14:01:10;11.00;77.10
33067;DHT22;19428;49.024;8.366;2024-01-30T14:03:36;11.00;80.30
33067;DHT22;19428;49.024;8.366;2024-01-30T14:06:01;11.00;77.60
33067;DHT22;19428;49.024;8.366;2024-01-30T14:08:27;11.00;80.10
33067;DHT22;19428;49.024;8.366;2024-01-30T14:10:54;11.00;78.70
33067;DHT22;19428;49.024;8.366;2024-01-30T14:13:21;11.00;80.20
33067;DHT22;19428;49.024;8.366;2024-01-30T14:15:48;11.00;77.30
33067;DHT22;19428;49.024;8.366;2024-01-30T14:18:14;11.00;78.60
33067;DHT22;19428;49.024;8.366;2024-01-30T14:20:43;11.10;78.10
33067;DHT22;19428;49.024;8.366;2024-01-30T14:23:09;11.00;75.10
33067;DHT22;19428;49.024;8.366;2024-01-30T14:25:34;11.10;78.60
33067;DHT22;19428;49.024;8.366;2024-01-30T14:28:00;11.10;74.80
33067;DHT22;19428;49.024;8.366;2024-01-30T14:30:26;11.00;76.40
33067;DHT22;19428;49.024;8.366;2024-01-30T14:32:51;11.00;75.00
33067;DHT22;19428;49.024;8.366;2024-01-30T14:35:17;11.00;74.90
33067;DHT22;19428;49.024;8.366;2024-01-30T14:37:44;11.10;77.30
33067;DHT22;19428;49.024;8.366;2024-01-30T14:40:10;11.10;75.20
33067;DHT22;19428;49.024;8.366;2024-01-30T14:42:36;11.00;76.80
33067;DHT22;19428;49.024;8.366;2024-01-30T14:45:03;11.00;78.10
33067;DHT22;19428;49.024;8.366;2024-01-30T14:47:29;11.00;79.40
33067;DHT22;19428;49.024;8.366;2024-01-30T14:49:59;10.90;82.80
33067;DHT22;19428;49.024;8.366;2024-01-30T14:52:24;10.90;81.80
33067;DHT22;19428;49.024;8.366;2024-01-30T14:54:50;10.90;81.50
33067;DHT22;19428;49.024;8.366;2024-01-30T14:57:16;10.80;86.00
33067;DHT22;19428;49.024;8.366;2024-01-30T14:59:42;10.80;88.00
33067;DHT22;19428;49.024;8.366;2024-01-30T15:02:25;10.80;91.60
33067;DHT22;19428;49.024;8.366;2024-01-30T15:04:51;10.80;93.40
33067;DHT22;19428;49.024;8.366;2024-01-30T15:07:18;10.80;93.70
33067;DHT22;19428;49.024;8.366;2024-01-30T15:09:43;10.80;95.20
33067;DHT22;19428;49.024;8.366;2024-01-30T15:14:37;10.80;96.40
33067;DHT22;19428;49.024;8.366;2024-01-30T15:17:03;10.80;97.00
33067;DHT22;19428;49.024;8.366;2024-01-30T15:19:29;10.80;96.70
33067;DHT22;19428;49.024;8.366;2024-01-30T15:21:54;10.80;95.90
33067;DHT22;19428;49.024;8.366;2024-01-30T15:24:20;10.80;97.70
33067;DHT22;19428;49.024;8.366;2024-01-30T15:26:50;10.80;97.40
33067;DHT22;19428;49.024;8.366;2024-01-30T15:29:16;10.70;96.60
33067;DHT22;19428;49.024;8.366;2024-01-30T15:31:42;10.80;96.50
33067;DHT22;19428;49.024;8.366;2024-01-30T15:34:07;10.80;97.30
33067;DHT22;19428;49.024;8.366;2024-01-30T15:36:33;10.80;98.30
33067;DHT22;19428;49.024;8.366;2024-01-30T15:38:58;10.70;99.90
33067;DHT22;19428;49.024;8.366;2024-01-30T15:41:24;10.70;99.90
33067;DHT22;19428;49.024;8.366;2024-01-30T15:43:50;10.60;99.90
33067;DHT22;19428;49.024;8.366;2024-01-30T15:46:16;10.60;99.90
33067;DHT22;19428;49.024;8.366;2024-01-30T15:48:42;10.50;99.90
33067;DHT22;19428;49.024;8.366;2024-01-30T15:51:07;10.50;99.90
33067;DHT22;19428;49.024;8.366;2024-01-30T15:53:33;10.50;99.90
33067;DHT22;19428;49.024;8.366;2024-01-30T15:55:59;10.50;99.90
33067;DHT22;19428;49.024;8.366;2024-01-30T15:58:24;10.50;99.90
33067;DHT22;19428;49.024;8.366;2024-01-30T16:00:50;10.50;99.90
33067;DHT22;19428;49.024;8.366;2024-01-30T16:03:15;10.50;99.90
33067;DHT22;19428;49.024;8.366;2024-01-30T16:05:41;10.50;99.90
33067;DHT22;19428;49.024;8.366;2024-01-30T16:08:07;10.40;99.90
33067;DHT22;19428;49.024;8.366;2024-01-30T16:10:32;10.40;99.90
33067;DHT22;19428;49.024;8.366;2024-01-30T16:12:58;10.30;99.90
33067;DHT22;19428;49.024;8.366;2024-01-30T16:15:23;10.30;99.90
33067;DHT22;19428;49.024;8.366;2024-01-30T16:17:50;10.20;99.90
33067;DHT22;19428;49.024;8.366;2024-01-30T16:20:16;10.30;99.90
33067;DHT22;19428;49.024;8.366;2024-01-30T16:22:41;10.20;99.90
33067;DHT22;19428;49.024;8.366;2024-01-30T16:25:07;10.30;99.90
33067;DHT22;19428;49.024;8.366;2024-01-30T16:27:33;10.40;99.90
33067;DHT22;19428;49.024;8.366;2024-01-30T16:29:58;10.40;99.90
33067;DHT22;19428;49.024;8.366;2024-01-30T16:32:24;10.40;99.90